createdAt,value
2022-12-08T00:00:09.576Z,3.68
2022-12-08T00:03:15.518Z,3.64
2022-12-08T00:06:42.927Z,3.60
2022-12-08T00:09:45.675Z,3.36
2022-12-08T00:12:48.441Z,3.30
2022-12-08T00:15:51.139Z,3.26
2022-12-08T00:18:53.915Z,3.26
2022-12-08T00:21:57.338Z,3.35
2022-12-08T00:25:00.295Z,3.43
2022-12-08T00:28:03.402Z,3.40
2022-12-08T00:31:10.978Z,3.36
2022-12-08T00:34:15.046Z,3.39
2022-12-08T00:37:17.769Z,3.45
2022-12-08T00:40:20.486Z,3.38
2022-12-08T00:43:23.228Z,3.43
2022-12-08T00:46:26.109Z,3.57
2022-12-08T00:49:29.062Z,3.60
2022-12-08T00:52:31.974Z,3.80
2022-12-08T00:55:34.697Z,3.84
2022-12-08T00:58:37.588Z,3.59
2022-12-08T01:01:40.395Z,3.72
2022-12-08T01:04:43.411Z,3.77
2022-12-08T01:07:46.308Z,3.74
2022-12-08T01:10:49.130Z,3.54
2022-12-08T01:13:51.987Z,3.47
2022-12-08T01:16:54.981Z,3.52
2022-12-08T01:19:57.741Z,3.60
2022-12-08T01:23:00.605Z,3.63
2022-12-08T01:26:05.188Z,3.68
2022-12-08T01:29:08.382Z,3.66
2022-12-08T01:32:11.274Z,3.53
2022-12-08T01:35:14.359Z,3.48
2022-12-08T01:38:17.449Z,3.59
2022-12-08T01:41:22.830Z,3.67
2022-12-08T01:44:25.583Z,3.72
2022-12-08T01:47:34.993Z,3.79
2022-12-08T01:50:40.066Z,3.61
2022-12-08T01:53:43.543Z,3.49
2022-12-08T01:57:11.990Z,3.56
2022-12-08T02:00:17.652Z,3.62
2022-12-08T02:03:59.138Z,3.54
2022-12-08T02:07:07.821Z,3.62
2022-12-08T02:10:14.534Z,3.65
2022-12-08T02:13:19.318Z,3.41
2022-12-08T02:16:22.188Z,3.32
2022-12-08T02:20:03.814Z,3.31
2022-12-08T02:23:11.277Z,3.38
2022-12-08T02:26:35.427Z,3.30
2022-12-08T02:30:07.803Z,3.24
2022-12-08T02:33:31.398Z,3.21
2022-12-08T02:36:47.423Z,3.20
2022-12-08T02:40:22.996Z,3.38
2022-12-08T02:43:47.775Z,3.28
2022-12-08T02:47:06.149Z,3.36
2022-12-08T02:50:09.993Z,3.30
2022-12-08T02:56:17.361Z,3.23
2022-12-08T02:59:33.895Z,3.08
2022-12-08T03:03:02.564Z,3.03
2022-12-08T03:06:24.097Z,3.11
2022-12-08T03:09:46.996Z,2.98
2022-12-08T03:12:57.748Z,2.91
2022-12-08T03:16:04.826Z,2.87
2022-12-08T03:19:21.332Z,2.83
2022-12-08T03:22:27.790Z,2.81
2022-12-08T03:25:33.764Z,2.78
2022-12-08T03:28:36.642Z,2.81
2022-12-08T03:31:44.618Z,2.80
2022-12-08T03:34:51.029Z,2.78
2022-12-08T03:38:09.115Z,2.79
2022-12-08T03:41:21.322Z,2.78
2022-12-08T03:44:24.190Z,2.80
2022-12-08T03:47:26.996Z,2.77
2022-12-08T03:50:29.849Z,2.73
2022-12-08T03:53:32.578Z,2.70
2022-12-08T03:56:38.281Z,2.65
2022-12-08T03:59:41.366Z,2.61
2022-12-08T04:02:44.252Z,2.57
2022-12-08T04:05:47.018Z,2.56
2022-12-08T04:08:51.122Z,2.57
2022-12-08T04:11:53.874Z,2.55
2022-12-08T04:14:56.558Z,2.45
2022-12-08T04:17:59.377Z,2.44
2022-12-08T04:21:02.843Z,2.42
2022-12-08T04:24:05.841Z,2.39
2022-12-08T04:27:08.682Z,2.39
2022-12-08T04:30:12.116Z,2.39
2022-12-08T04:33:14.865Z,2.45
2022-12-08T04:36:17.660Z,2.49
2022-12-08T04:39:21.386Z,2.51
2022-12-08T04:42:24.121Z,2.49
2022-12-08T04:45:26.961Z,2.64
2022-12-08T04:48:29.959Z,2.67
2022-12-08T04:51:32.745Z,2.75
2022-12-08T04:54:35.571Z,2.82
2022-12-08T04:57:38.392Z,2.86
2022-12-08T05:00:41.609Z,3.01
2022-12-08T05:03:44.401Z,3.05
2022-12-08T05:06:47.185Z,3.14
2022-12-08T05:09:49.969Z,3.12
2022-12-08T05:12:52.883Z,3.04
2022-12-08T05:16:06.159Z,3.17
2022-12-08T05:19:09.539Z,3.25
2022-12-08T05:22:12.498Z,3.28
2022-12-08T05:25:15.544Z,3.35
2022-12-08T05:28:40.735Z,3.45
2022-12-08T05:31:41.242Z,3.48
2022-12-08T05:34:44.156Z,3.61
2022-12-08T05:37:47.010Z,3.59
2022-12-08T05:40:49.839Z,3.58
2022-12-08T05:43:52.650Z,3.38
2022-12-08T05:46:55.504Z,3.38
2022-12-08T05:49:58.303Z,3.36
2022-12-08T05:53:01.076Z,3.06
2022-12-08T05:56:04.040Z,2.90
2022-12-08T05:59:07.589Z,2.84
2022-12-08T06:02:10.397Z,2.84
2022-12-08T06:05:13.438Z,2.83
2022-12-08T06:08:16.452Z,2.82
2022-12-08T06:11:21.566Z,2.77
2022-12-08T06:14:24.435Z,2.77
2022-12-08T06:17:27.274Z,2.76
2022-12-08T06:20:30.085Z,2.77
2022-12-08T06:23:32.863Z,2.79
2022-12-08T06:26:36.253Z,2.77
2022-12-08T06:29:39.373Z,2.85
2022-12-08T06:32:42.441Z,2.84
2022-12-08T06:35:45.291Z,2.86
2022-12-08T06:38:48.627Z,2.86
2022-12-08T06:42:09.810Z,2.88
2022-12-08T06:45:17.112Z,2.87
2022-12-08T06:48:20.032Z,2.87
2022-12-08T06:51:25.716Z,2.91
2022-12-08T06:54:28.771Z,2.98
2022-12-08T06:57:31.820Z,3.01
2022-12-08T07:00:34.658Z,3.02
2022-12-08T07:03:38.702Z,3.04
2022-12-08T07:06:41.802Z,2.99
2022-12-08T07:09:44.963Z,3.01
2022-12-08T07:12:48.081Z,3.03
2022-12-08T07:15:52.607Z,3.08
2022-12-08T07:18:57.061Z,3.21
2022-12-08T07:22:00.743Z,3.29
2022-12-08T07:25:03.776Z,3.28
2022-12-08T07:28:13.090Z,3.32
2022-12-08T07:31:26.973Z,3.51
2022-12-08T07:34:33.751Z,3.60
2022-12-08T07:37:38.264Z,3.72
2022-12-08T07:40:41.288Z,3.74
2022-12-08T07:43:48.207Z,3.84
2022-12-08T07:46:51.372Z,4.01
2022-12-08T07:49:54.474Z,4.05
2022-12-08T07:52:58.533Z,4.16
2022-12-08T07:56:01.355Z,4.16
2022-12-08T07:59:04.563Z,4.23
2022-12-08T08:02:24.290Z,4.27
2022-12-08T08:05:28.537Z,4.36
2022-12-08T08:08:34.780Z,4.21
2022-12-08T08:11:37.995Z,4.15
2022-12-08T08:14:40.879Z,4.10
2022-12-08T08:17:43.644Z,4.09
2022-12-08T08:20:46.514Z,4.12
2022-12-08T08:23:49.570Z,4.06
2022-12-08T08:26:53.726Z,4.11
2022-12-08T08:29:56.684Z,4.09
2022-12-08T08:33:01.225Z,4.07
2022-12-08T08:36:08.412Z,4.08
2022-12-08T08:39:11.269Z,4.20
2022-12-08T08:42:15.671Z,4.22
2022-12-08T08:45:18.547Z,4.12
2022-12-08T08:48:21.603Z,4.24
2022-12-08T08:51:24.596Z,4.37
2022-12-08T08:54:29.629Z,4.33
2022-12-08T08:57:32.609Z,4.43
2022-12-08T09:00:35.404Z,4.56
2022-12-08T09:03:38.808Z,4.72
2022-12-08T09:06:45.586Z,4.86
2022-12-08T09:09:50.398Z,4.83
2022-12-08T09:12:53.415Z,4.96
2022-12-08T09:15:56.594Z,4.96
2022-12-08T09:19:00.649Z,4.87
2022-12-08T09:23:04.760Z,5.17
2022-12-08T09:26:09.350Z,5.31
2022-12-08T09:29:13.971Z,5.43
2022-12-08T09:32:17.065Z,5.68
2022-12-08T09:35:20.135Z,5.40
2022-12-08T09:38:23.219Z,5.50
2022-12-08T09:41:38.779Z,5.49
2022-12-08T09:45:10.015Z,5.67
2022-12-08T09:48:15.518Z,5.55
2022-12-08T09:51:18.891Z,5.70
2022-12-08T09:54:35.208Z,5.73
2022-12-08T09:57:38.388Z,5.84
2022-12-08T10:00:41.173Z,6.18
2022-12-08T10:03:44.085Z,5.92
2022-12-08T10:06:53.228Z,5.88
2022-12-08T10:10:04.749Z,6.13
2022-12-08T10:13:22.115Z,5.71
2022-12-08T10:16:35.099Z,6.15
2022-12-08T10:19:40.869Z,7.84
2022-12-08T10:22:49.965Z,7.41
2022-12-08T10:26:01.087Z,6.94
2022-12-08T10:29:04.083Z,7.31
2022-12-08T10:32:17.235Z,7.21
2022-12-08T10:35:23.043Z,6.89
2022-12-08T10:38:36.373Z,6.90
2022-12-08T10:41:40.438Z,6.45
2022-12-08T10:45:24.909Z,6.38
2022-12-08T10:48:33.383Z,6.26
2022-12-08T10:51:42.097Z,6.44
2022-12-08T10:54:46.835Z,6.25
2022-12-08T10:57:50.780Z,6.55
2022-12-08T11:01:03.216Z,6.26
2022-12-08T11:04:18.853Z,6.36
2022-12-08T11:07:23.682Z,6.21
2022-12-08T11:10:37.753Z,6.31
2022-12-08T11:13:42.356Z,6.33
2022-12-08T11:16:45.725Z,6.27
2022-12-08T11:20:12.608Z,6.23
2022-12-08T11:27:59.882Z,6.63
2022-12-08T11:31:21.075Z,6.64
2022-12-08T11:34:38.987Z,6.64
2022-12-08T11:37:43.827Z,6.53
2022-12-08T11:40:53.462Z,6.59
2022-12-08T11:44:24.631Z,6.48
2022-12-08T11:47:41.332Z,6.23
2022-12-08T11:50:52.991Z,6.21
2022-12-08T11:54:28.870Z,6.09
2022-12-08T11:57:32.341Z,6.07
2022-12-08T12:00:35.680Z,6.19
2022-12-08T12:04:04.688Z,6.26
2022-12-08T12:07:42.026Z,6.20
2022-12-08T12:11:09.582Z,6.35
2022-12-08T12:14:12.384Z,6.10
2022-12-08T12:17:40.692Z,6.10
2022-12-08T12:21:06.785Z,6.17
2022-12-08T12:24:30.496Z,6.06
2022-12-08T12:27:41.559Z,5.98
2022-12-08T12:31:15.924Z,6.10
2022-12-08T12:34:24.305Z,6.18
2022-12-08T12:37:39.137Z,6.03
2022-12-08T12:40:42.322Z,5.99
2022-12-08T12:44:10.564Z,6.19
2022-12-08T12:47:15.121Z,6.12
2022-12-08T12:50:33.565Z,5.97
2022-12-08T12:53:36.420Z,5.98
2022-12-08T12:57:08.635Z,5.85
2022-12-08T13:00:20.458Z,5.77
2022-12-08T13:03:25.023Z,5.83
2022-12-08T13:06:44.988Z,5.82
2022-12-08T13:10:33.854Z,5.83
2022-12-08T13:13:57.311Z,5.77
2022-12-08T13:17:02.297Z,5.78
2022-12-08T13:20:17.708Z,5.73
2022-12-08T13:23:57.807Z,5.69
2022-12-08T13:27:14.833Z,5.65
2022-12-08T13:30:45.409Z,5.65
2022-12-08T13:33:48.562Z,5.69
2022-12-08T13:37:00.424Z,5.66
2022-12-08T13:40:16.395Z,5.55
2022-12-08T13:43:52.444Z,5.50
2022-12-08T13:47:32.916Z,5.47
2022-12-08T13:51:55.004Z,5.43
2022-12-08T13:57:35.800Z,5.47
2022-12-08T14:00:39.416Z,5.45
2022-12-08T14:04:42.148Z,5.45
2022-12-08T14:07:22.959Z,5.40
2022-12-08T14:10:30.583Z,5.38
2022-12-08T14:13:34.262Z,5.38
2022-12-08T14:16:49.822Z,5.33
2022-12-08T14:20:02.141Z,5.33
2022-12-08T14:23:07.863Z,5.26
2022-12-08T14:26:12.845Z,5.21
2022-12-08T14:29:40.067Z,5.15
2022-12-08T14:32:58.802Z,5.12
2022-12-08T14:36:01.599Z,5.07
2022-12-08T14:39:04.456Z,5.02
2022-12-08T14:42:07.912Z,4.95
2022-12-08T14:45:13.252Z,4.89
2022-12-08T14:48:29.660Z,4.84
2022-12-08T14:51:33.729Z,4.80
2022-12-08T14:54:36.660Z,4.82
2022-12-08T14:57:39.851Z,4.81
2022-12-08T15:00:50.182Z,4.81
2022-12-08T15:03:55.655Z,4.79
2022-12-08T15:07:04.890Z,4.86
2022-12-08T15:10:10.219Z,4.85
2022-12-08T15:13:13.075Z,4.84
2022-12-08T15:16:27.237Z,4.76
2022-12-08T15:19:33.429Z,4.74
2022-12-08T15:22:36.286Z,4.70
2022-12-08T15:25:39.076Z,4.70
2022-12-08T15:28:41.931Z,4.77
2022-12-08T15:31:44.964Z,4.76
2022-12-08T15:34:48.370Z,4.90
2022-12-08T15:37:51.250Z,4.96
2022-12-08T15:40:55.290Z,4.98
2022-12-08T15:43:58.209Z,5.06
2022-12-08T15:47:01.229Z,5.23
2022-12-08T15:50:05.017Z,5.18
2022-12-08T15:53:10.754Z,4.97
2022-12-08T15:56:30.104Z,4.88
2022-12-08T15:59:33.227Z,4.80
2022-12-08T16:03:04.938Z,4.79
2022-12-08T16:06:50.808Z,4.93
2022-12-08T16:09:41.595Z,4.84
2022-12-08T16:16:29.310Z,4.72
2022-12-08T16:19:32.052Z,4.72
2022-12-08T16:29:22.713Z,4.78
2022-12-08T16:32:27.152Z,4.73
2022-12-08T16:35:30.825Z,4.70
2022-12-08T16:38:36.029Z,4.61
2022-12-08T16:42:01.192Z,4.55
2022-12-08T16:45:10.145Z,4.52
2022-12-08T16:48:14.811Z,4.43
2022-12-08T16:51:26.481Z,4.32
2022-12-08T16:54:30.288Z,4.26
2022-12-08T16:57:33.018Z,4.27
2022-12-08T17:00:38.733Z,4.22
2022-12-08T17:03:51.736Z,4.19
2022-12-08T17:07:05.806Z,4.23
2022-12-08T17:10:10.903Z,4.16
2022-12-08T17:13:16.997Z,4.05
2022-12-08T17:16:20.420Z,3.99
2022-12-08T17:19:23.449Z,4.02
2022-12-08T17:22:26.481Z,4.08
2022-12-08T17:25:29.363Z,4.16
2022-12-08T17:28:58.853Z,4.31
2022-12-08T17:31:55.472Z,4.39
2022-12-08T17:34:58.474Z,4.50
2022-12-08T17:38:01.251Z,4.61
2022-12-08T17:41:07.294Z,4.71
2022-12-08T17:44:12.319Z,4.83
2022-12-08T17:47:15.078Z,4.94
2022-12-08T17:50:18.254Z,5.00
2022-12-08T17:53:22.158Z,4.96
2022-12-08T17:56:25.018Z,5.09
2022-12-08T17:59:29.052Z,4.96
2022-12-08T18:02:33.675Z,5.20
2022-12-08T18:05:37.088Z,5.05
2022-12-08T18:08:40.770Z,5.21
2022-12-08T18:11:44.643Z,5.14
2022-12-08T18:14:48.392Z,4.91
2022-12-08T18:17:51.332Z,4.96
2022-12-08T18:20:54.567Z,4.93
2022-12-08T18:23:57.667Z,5.00
2022-12-08T18:27:00.587Z,5.10
2022-12-08T18:30:04.183Z,5.05
2022-12-08T18:33:08.451Z,5.13
2022-12-08T18:36:15.242Z,5.11
2022-12-08T18:39:29.465Z,5.02
2022-12-08T18:42:32.823Z,4.93
2022-12-08T18:45:38.879Z,4.86
2022-12-08T18:48:47.394Z,4.74
2022-12-08T18:51:50.339Z,4.85
2022-12-08T18:55:09.060Z,4.92
2022-12-08T18:58:15.179Z,4.98
2022-12-08T19:01:19.842Z,4.98
2022-12-08T19:04:31.886Z,5.08
2022-12-08T19:07:36.763Z,5.12
2022-12-08T19:10:39.714Z,5.03
2022-12-08T19:13:42.747Z,5.01
2022-12-08T19:16:46.861Z,4.99
2022-12-08T19:19:50.126Z,5.03
2022-12-08T19:22:53.850Z,5.09
2022-12-08T19:25:56.660Z,5.15
2022-12-08T19:28:59.902Z,5.15
2022-12-08T19:32:05.240Z,5.17
2022-12-08T19:35:08.742Z,5.15
2022-12-08T19:38:11.888Z,5.19
2022-12-08T19:41:33.919Z,5.15
2022-12-08T19:44:55.276Z,5.09
2022-12-08T19:47:58.439Z,5.15
2022-12-08T19:51:01.728Z,5.08
2022-12-08T19:54:05.170Z,5.11
2022-12-08T19:57:08.602Z,5.00
2022-12-08T20:00:13.130Z,5.12
2022-12-08T20:03:17.911Z,5.08
2022-12-08T20:06:23.374Z,5.22
2022-12-08T20:09:26.494Z,5.05
2022-12-08T20:12:29.532Z,5.09
2022-12-08T20:15:32.650Z,5.02
2022-12-08T20:18:37.168Z,5.09
2022-12-08T20:21:41.265Z,5.09
2022-12-08T20:24:44.107Z,5.13
2022-12-08T20:27:47.174Z,5.04
2022-12-08T20:30:50.432Z,4.98
2022-12-08T20:33:53.721Z,5.01
2022-12-08T20:36:56.837Z,5.10
2022-12-08T20:39:59.955Z,5.03
2022-12-08T20:43:03.043Z,4.99
2022-12-08T20:46:09.468Z,5.02
2022-12-08T20:49:13.416Z,4.99
2022-12-08T20:52:16.865Z,5.00
2022-12-08T20:55:20.049Z,5.01
2022-12-08T20:58:23.801Z,4.95
2022-12-08T21:01:27.167Z,4.84
2022-12-08T21:04:30.277Z,4.79
2022-12-08T21:07:34.274Z,4.86
2022-12-08T21:10:42.294Z,4.86
2022-12-08T21:13:47.045Z,4.92
2022-12-08T21:16:51.014Z,4.88
2022-12-08T21:19:54.033Z,4.91
2022-12-08T21:22:56.765Z,4.94
2022-12-08T21:25:59.804Z,4.94
2022-12-08T21:29:02.602Z,4.84
2022-12-08T21:32:05.635Z,4.92
2022-12-08T21:35:09.259Z,5.07
2022-12-08T21:38:12.404Z,4.86
2022-12-08T21:41:37.617Z,4.80
2022-12-08T21:44:40.773Z,4.83
2022-12-08T21:47:44.917Z,4.85
2022-12-08T21:50:48.125Z,4.89
2022-12-08T21:53:51.369Z,4.88
2022-12-08T21:56:54.392Z,4.89
2022-12-08T21:59:57.675Z,4.88
2022-12-08T22:03:00.563Z,4.75
2022-12-08T22:06:11.929Z,4.88
2022-12-08T22:09:15.475Z,4.94
2022-12-08T22:12:18.625Z,4.97
2022-12-08T22:15:21.464Z,4.95
2022-12-08T22:18:24.672Z,4.77
2022-12-08T22:21:27.894Z,4.82
2022-12-08T22:24:31.344Z,4.82
2022-12-08T22:27:34.660Z,4.82
2022-12-08T22:30:39.475Z,4.80
2022-12-08T22:33:42.997Z,4.82
2022-12-08T22:36:46.023Z,4.75
2022-12-08T22:39:48.853Z,4.95
2022-12-08T22:42:51.848Z,4.72
2022-12-08T22:45:54.761Z,4.88
2022-12-08T22:48:57.632Z,4.83
2022-12-08T22:52:00.616Z,4.85
2022-12-08T22:55:03.521Z,4.74
2022-12-08T22:58:06.245Z,4.75
2022-12-08T23:01:09.432Z,4.78
2022-12-08T23:04:17.425Z,4.82
2022-12-08T23:07:20.535Z,5.06
2022-12-08T23:10:23.399Z,4.97
2022-12-08T23:13:26.134Z,4.96
2022-12-08T23:16:29.193Z,4.95
2022-12-08T23:19:32.021Z,4.93
2022-12-08T23:22:34.756Z,4.81
2022-12-08T23:25:41.720Z,4.77
2022-12-08T23:28:44.857Z,4.76
2022-12-08T23:31:47.738Z,4.78
2022-12-08T23:34:50.760Z,4.73
2022-12-08T23:37:53.762Z,4.81
2022-12-08T23:41:02.219Z,4.64
2022-12-08T23:44:05.099Z,4.61
2022-12-08T23:47:08.035Z,4.60
2022-12-08T23:50:12.196Z,4.64
2022-12-08T23:53:15.221Z,4.72
2022-12-08T23:56:18.891Z,4.52
2022-12-08T23:59:21.745Z,4.65
